Anaheim, CA (92801)

6:53 AM PDT on October 01, 2016 (GMT -0700)
Orangethorpe/Brookhurst | | Change Station

Elev 125 ft 33.86 °N, 117.95 °W | Updated 4 seconds ago

Clear
Clear
61.3 °F
Feels Like 61.3 °F
N
0.0
Wind Variable Wind from SSW

Today
High -- | Low -- °F
--% Chance of Precip.
Yesterday
High -- | Low -- °F
Precip. -- in
Pressure 29.96 in
Visibility 10.0 miles
Clouds Clear
Dew Point 57 °F
Humidity 88%
Rainfall 0.00 in
Snow Depth Not available.
6:46 AM 6:35 PM
New Moon, 0% visible
METAR KFUL 011253Z AUTO 00000KT 10SM CLR 19/16 A2996 RMK AO2 SLP145 T01940161
Pressure 29.96 in
Visibility 10.0 miles
Clouds Clear
Dew Point 57 °F
Humidity 88%
Rainfall 0.00 in
Snow Depth Not available.
6:46 AM 6:35 PM
New Moon, 0% visible
METAR KFUL 011253Z AUTO 00000KT 10SM CLR 19/16 A2996 RMK AO2 SLP145 T01940161

10-Day Weather Forecast

Almanac

Astronomy

Oct. 01, 2016 Rise Set
Actual Time
Civil Twilight
Nautical Twilight
Astronomical Twilight
Moon
Length of Visible Light
Length of Day
Tomorrow will be .
, % of the Moon is Illuminated

Today's Extremes

State Highs State Lows

Community

WunderPhotos

Upload Photos

1,942,931 photos uploaded!

WunderBlog® & News

Nearby

Air Quality

  Air Quality AQ Index Pollutant
Not available.

Snow Depth

Station Depth Elevation

Earthquake Activity

City Distance Mag. Time & Date
Minimum magnitude displayed is 2.5.

Coastal Water Temperatures

Place Temperature

Stations

Nearby Weather Stations

Station Location Temp. Windchill Dew Point Humidity Wind Precip. Elev Updated Type
                   

Watches & Warnings

There are currently no watches in effect.